Terminal Aerodrome Forecast
Issued by NWS

Home | Current Version | Previous Version | Text Only | Print | Product List | Glossary On
Versions: 1 2 3 4 5 6 7 8 9 10 11 12 13 14 15 16 17 18 19 20 21 22 23 24 25 26 27 28
776
FTUS41 KOKX 130534
TAFSWF
TAF
KSWF 130534Z 1306/1412 29017G27KT P6SM FEW020 BKN060
     FM131300 29023G35KT P6SM BKN040
     FM132100 28020G29KT P6SM SCT040 BKN200
     FM140100 27010G20KT P6SM BKN040 BKN100
     FM140500 26008KT 6SM -SN BKN040 BKN100
     FM141000 26006KT 2SM -SN BKN020
      AMD NOT SKED=

USA.gov is the U.S. government's official web portal to all federal, state and local government web resources and services.